sensor_id;sensor_type;location;lat;lon;timestamp;temperature;humidity
8707;DHT22;4390;49.302;9.306;2023-06-26T00:02:16;24.30;80.50
8707;DHT22;4390;49.302;9.306;2023-06-26T00:04:44;24.30;80.50
8707;DHT22;4390;49.302;9.306;2023-06-26T00:07:11;24.20;80.60
8707;DHT22;4390;49.302;9.306;2023-06-26T00:09:37;24.20;80.60
8707;DHT22;4390;49.302;9.306;2023-06-26T00:12:05;24.20;80.60
8707;DHT22;4390;49.302;9.306;2023-06-26T00:14:32;24.10;80.60
8707;DHT22;4390;49.302;9.306;2023-06-26T00:16:59;24.10;80.70
8707;DHT22;4390;49.302;9.306;2023-06-26T00:19:25;24.10;80.70
8707;DHT22;4390;49.302;9.306;2023-06-26T00:21:52;24.10;80.60
8707;DHT22;4390;49.302;9.306;2023-06-26T00:24:19;24.10;80.60
8707;DHT22;4390;49.302;9.306;2023-06-26T00:26:47;24.10;80.60
8707;DHT22;4390;49.302;9.306;2023-06-26T00:29:14;24.00;80.70
8707;DHT22;4390;49.302;9.306;2023-06-26T00:31:41;24.00;80.70
8707;DHT22;4390;49.302;9.306;2023-06-26T00:34:08;24.00;80.60
8707;DHT22;4390;49.302;9.306;2023-06-26T00:36:35;24.00;80.60
8707;DHT22;4390;49.302;9.306;2023-06-26T00:39:03;24.00;80.60
8707;DHT22;4390;49.302;9.306;2023-06-26T00:41:30;24.00;80.60
8707;DHT22;4390;49.302;9.306;2023-06-26T00:43:57;24.10;80.60
8707;DHT22;4390;49.302;9.306;2023-06-26T00:46:25;24.10;80.60
8707;DHT22;4390;49.302;9.306;2023-06-26T00:48:54;24.00;80.60
8707;DHT22;4390;49.302;9.306;2023-06-26T00:51:21;24.00;80.60
8707;DHT22;4390;49.302;9.306;2023-06-26T00:53:49;24.00;80.60
8707;DHT22;4390;49.302;9.306;2023-06-26T00:56:18;24.00;80.70
8707;DHT22;4390;49.302;9.306;2023-06-26T00:58:45;24.00;80.70
8707;DHT22;4390;49.302;9.306;2023-06-26T01:01:13;23.90;80.70
8707;DHT22;4390;49.302;9.306;2023-06-26T01:03:44;23.90;80.70
8707;DHT22;4390;49.302;9.306;2023-06-26T01:06:13;23.90;80.70
8707;DHT22;4390;49.302;9.306;2023-06-26T01:08:41;23.90;80.70
8707;DHT22;4390;49.302;9.306;2023-06-26T01:11:10;23.90;80.70
8707;DHT22;4390;49.302;9.306;2023-06-26T01:13:38;23.90;80.60
8707;DHT22;4390;49.302;9.306;2023-06-26T01:16:06;23.90;80.60
8707;DHT22;4390;49.302;9.306;2023-06-26T01:18:33;23.90;80.60
8707;DHT22;4390;49.302;9.306;2023-06-26T01:21:01;23.90;80.60
8707;DHT22;4390;49.302;9.306;2023-06-26T01:23:35;23.90;80.60
8707;DHT22;4390;49.302;9.306;2023-06-26T01:26:15;23.80;80.60
8707;DHT22;4390;49.302;9.306;2023-06-26T01:28:43;23.80;80.70
8707;DHT22;4390;49.302;9.306;2023-06-26T01:31:11;23.80;80.60
8707;DHT22;4390;49.302;9.306;2023-06-26T01:33:39;23.80;80.70
8707;DHT22;4390;49.302;9.306;2023-06-26T01:36:07;23.70;80.70
8707;DHT22;4390;49.302;9.306;2023-06-26T01:38:37;23.80;80.70
8707;DHT22;4390;49.302;9.306;2023-06-26T01:41:05;23.80;80.60
8707;DHT22;4390;49.302;9.306;2023-06-26T01:51:59;23.70;80.70
8707;DHT22;4390;49.302;9.306;2023-06-26T01:54:30;23.70;80.60
8707;DHT22;4390;49.302;9.306;2023-06-26T01:57:00;23.70;80.60
8707;DHT22;4390;49.302;9.306;2023-06-26T01:59:28;23.70;80.60
8707;DHT22;4390;49.302;9.306;2023-06-26T02:01:58;23.70;80.60
8707;DHT22;4390;49.302;9.306;2023-06-26T02:04:27;23.70;80.50
8707;DHT22;4390;49.302;9.306;2023-06-26T02:06:53;23.70;80.50
8707;DHT22;4390;49.302;9.306;2023-06-26T02:09:21;23.60;80.50
8707;DHT22;4390;49.302;9.306;2023-06-26T02:11:48;23.60;80.50
8707;DHT22;4390;49.302;9.306;2023-06-26T02:14:15;23.60;80.50
8707;DHT22;4390;49.302;9.306;2023-06-26T02:16:42;23.60;80.60
8707;DHT22;4390;49.302;9.306;2023-06-26T02:19:09;23.60;80.60
8707;DHT22;4390;49.302;9.306;2023-06-26T02:21:36;23.60;80.60
8707;DHT22;4390;49.302;9.306;2023-06-26T02:24:03;23.60;80.60
8707;DHT22;4390;49.302;9.306;2023-06-26T02:26:32;23.60;80.60
8707;DHT22;4390;49.302;9.306;2023-06-26T02:28:59;23.60;80.60
8707;DHT22;4390;49.302;9.306;2023-06-26T02:31:25;23.60;80.60
8707;DHT22;4390;49.302;9.306;2023-06-26T02:33:54;23.60;80.50
8707;DHT22;4390;49.302;9.306;2023-06-26T02:36:21;23.60;80.50
8707;DHT22;4390;49.302;9.306;2023-06-26T02:38:48;23.50;80.50
8707;DHT22;4390;49.302;9.306;2023-06-26T02:41:15;23.50;80.50
8707;DHT22;4390;49.302;9.306;2023-06-26T02:43:42;23.60;80.50
8707;DHT22;4390;49.302;9.306;2023-06-26T02:46:08;23.60;80.40
8707;DHT22;4390;49.302;9.306;2023-06-26T02:48:35;23.50;80.40
8707;DHT22;4390;49.302;9.306;2023-06-26T02:51:02;23.50;80.50
8707;DHT22;4390;49.302;9.306;2023-06-26T02:53:31;23.50;80.40
8707;DHT22;4390;49.302;9.306;2023-06-26T02:55:58;23.50;80.60
8707;DHT22;4390;49.302;9.306;2023-06-26T02:58:25;23.40;80.60
8707;DHT22;4390;49.302;9.306;2023-06-26T03:00:52;23.40;80.60
8707;DHT22;4390;49.302;9.306;2023-06-26T03:03:20;23.40;80.60
8707;DHT22;4390;49.302;9.306;2023-06-26T03:05:47;23.40;80.60
8707;DHT22;4390;49.302;9.306;2023-06-26T03:08:14;23.40;80.60
8707;DHT22;4390;49.302;9.306;2023-06-26T03:10:41;23.40;80.60
8707;DHT22;4390;49.302;9.306;2023-06-26T03:13:08;23.40;80.60
8707;DHT22;4390;49.302;9.306;2023-06-26T03:15:36;23.40;80.40
8707;DHT22;4390;49.302;9.306;2023-06-26T03:18:03;23.40;80.40
8707;DHT22;4390;49.302;9.306;2023-06-26T03:20:29;23.30;80.40
8707;DHT22;4390;49.302;9.306;2023-06-26T03:22:57;23.40;80.40
8707;DHT22;4390;49.302;9.306;2023-06-26T03:25:24;23.30;80.60
8707;DHT22;4390;49.302;9.306;2023-06-26T03:28:10;23.30;80.60
8707;DHT22;4390;49.302;9.306;2023-06-26T03:30:37;23.40;80.40
8707;DHT22;4390;49.302;9.306;2023-06-26T03:33:05;23.30;80.40
8707;DHT22;4390;49.302;9.306;2023-06-26T03:35:31;23.30;80.60
8707;DHT22;4390;49.302;9.306;2023-06-26T03:37:59;23.30;80.40
8707;DHT22;4390;49.302;9.306;2023-06-26T03:40:27;23.30;80.40
8707;DHT22;4390;49.302;9.306;2023-06-26T03:42:54;23.30;80.40
8707;DHT22;4390;49.302;9.306;2023-06-26T03:45:21;23.30;80.40
8707;DHT22;4390;49.302;9.306;2023-06-26T03:47:48;23.20;80.40
8707;DHT22;4390;49.302;9.306;2023-06-26T03:50:16;23.20;80.50
8707;DHT22;4390;49.302;9.306;2023-06-26T03:52:43;23.20;80.40
8707;DHT22;4390;49.302;9.306;2023-06-26T03:55:12;23.20;80.50
8707;DHT22;4390;49.302;9.306;2023-06-26T03:57:39;23.20;80.40
8707;DHT22;4390;49.302;9.306;2023-06-26T04:00:09;23.20;80.40
8707;DHT22;4390;49.302;9.306;2023-06-26T04:02:41;23.30;80.40
8707;DHT22;4390;49.302;9.306;2023-06-26T04:05:08;23.30;80.30
8707;DHT22;4390;49.302;9.306;2023-06-26T04:07:36;23.30;80.40
8707;DHT22;4390;49.302;9.306;2023-06-26T04:10:06;23.30;80.30
8707;DHT22;4390;49.302;9.306;2023-06-26T04:12:33;23.20;80.40
8707;DHT22;4390;49.302;9.306;2023-06-26T04:15:00;23.20;80.40
8707;DHT22;4390;49.302;9.306;2023-06-26T04:17:27;23.20;80.40
8707;DHT22;4390;49.302;9.306;2023-06-26T04:19:54;23.30;80.40
8707;DHT22;4390;49.302;9.306;2023-06-26T04:22:20;23.20;80.70
8707;DHT22;4390;49.302;9.306;2023-06-26T04:24:47;23.20;80.70
8707;DHT22;4390;49.302;9.306;2023-06-26T04:27:14;23.20;80.70
8707;DHT22;4390;49.302;9.306;2023-06-26T04:29:41;23.20;80.70
8707;DHT22;4390;49.302;9.306;2023-06-26T04:32:07;23.20;80.70
8707;DHT22;4390;49.302;9.306;2023-06-26T04:34:34;23.20;80.80
8707;DHT22;4390;49.302;9.306;2023-06-26T04:37:03;23.10;80.80
8707;DHT22;4390;49.302;9.306;2023-06-26T04:39:32;23.10;80.80
8707;DHT22;4390;49.302;9.306;2023-06-26T04:41:59;23.10;80.80
8707;DHT22;4390;49.302;9.306;2023-06-26T04:44:26;23.10;80.80
8707;DHT22;4390;49.302;9.306;2023-06-26T04:46:52;23.10;80.80
8707;DHT22;4390;49.302;9.306;2023-06-26T04:49:19;23.10;80.80
8707;DHT22;4390;49.302;9.306;2023-06-26T04:51:47;23.00;81.00
8707;DHT22;4390;49.302;9.306;2023-06-26T04:54:15;22.90;81.20
8707;DHT22;4390;49.302;9.306;2023-06-26T04:56:41;22.70;81.50
8707;DHT22;4390;49.302;9.306;2023-06-26T04:59:10;22.70;81.80
8707;DHT22;4390;49.302;9.306;2023-06-26T05:01:40;22.70;81.80
8707;DHT22;4390;49.302;9.306;2023-06-26T05:04:07;22.60;82.00
8707;DHT22;4390;49.302;9.306;2023-06-26T05:06:34;22.60;82.10
8707;DHT22;4390;49.302;9.306;2023-06-26T05:09:01;22.60;82.10
8707;DHT22;4390;49.302;9.306;2023-06-26T05:11:27;22.60;82.10
8707;DHT22;4390;49.302;9.306;2023-06-26T05:13:54;22.70;82.10
8707;DHT22;4390;49.302;9.306;2023-06-26T05:16:21;22.80;81.80
8707;DHT22;4390;49.302;9.306;2023-06-26T05:18:48;22.80;81.70
8707;DHT22;4390;49.302;9.306;2023-06-26T05:21:16;22.90;81.80
8707;DHT22;4390;49.302;9.306;2023-06-26T05:23:43;22.90;81.70
8707;DHT22;4390;49.302;9.306;2023-06-26T05:26:11;23.00;81.80
8707;DHT22;4390;49.302;9.306;2023-06-26T05:28:39;23.00;81.70
8707;DHT22;4390;49.302;9.306;2023-06-26T05:31:07;23.00;81.70
8707;DHT22;4390;49.302;9.306;2023-06-26T05:33:35;23.00;81.80
8707;DHT22;4390;49.302;9.306;2023-06-26T05:36:04;23.00;81.80
8707;DHT22;4390;49.302;9.306;2023-06-26T05:38:32;23.00;81.90
8707;DHT22;4390;49.302;9.306;2023-06-26T05:40:59;22.90;82.00
8707;DHT22;4390;49.302;9.306;2023-06-26T05:43:26;22.90;82.10
8707;DHT22;4390;49.302;9.306;2023-06-26T05:45:56;22.90;82.20
8707;DHT22;4390;49.302;9.306;2023-06-26T05:48:24;22.90;82.20
8707;DHT22;4390;49.302;9.306;2023-06-26T05:50:51;22.90;82.20
8707;DHT22;4390;49.302;9.306;2023-06-26T05:53:18;22.90;82.30
8707;DHT22;4390;49.302;9.306;2023-06-26T05:55:45;23.00;82.20
8707;DHT22;4390;49.302;9.306;2023-06-26T05:58:12;23.00;82.30
8707;DHT22;4390;49.302;9.306;2023-06-26T06:00:39;23.00;82.30
8707;DHT22;4390;49.302;9.306;2023-06-26T06:03:09;23.00;82.30
8707;DHT22;4390;49.302;9.306;2023-06-26T06:05:37;23.00;82.30
8707;DHT22;4390;49.302;9.306;2023-06-26T06:08:04;23.00;82.30
8707;DHT22;4390;49.302;9.306;2023-06-26T06:10:31;23.10;82.30
8707;DHT22;4390;49.302;9.306;2023-06-26T06:12:57;23.10;82.40
8707;DHT22;4390;49.302;9.306;2023-06-26T06:15:24;23.00;82.40
8707;DHT22;4390;49.302;9.306;2023-06-26T06:17:53;23.00;82.50
8707;DHT22;4390;49.302;9.306;2023-06-26T06:20:20;23.00;82.60
8707;DHT22;4390;49.302;9.306;2023-06-26T06:22:46;22.90;82.60
8707;DHT22;4390;49.302;9.306;2023-06-26T06:25:15;22.90;82.50
8707;DHT22;4390;49.302;9.306;2023-06-26T06:27:42;22.90;82.30
8707;DHT22;4390;49.302;9.306;2023-06-26T06:30:10;22.90;82.30
8707;DHT22;4390;49.302;9.306;2023-06-26T06:32:37;22.90;82.30
8707;DHT22;4390;49.302;9.306;2023-06-26T06:35:04;23.00;82.30
8707;DHT22;4390;49.302;9.306;2023-06-26T06:37:37;22.90;82.20
8707;DHT22;4390;49.302;9.306;2023-06-26T06:40:09;22.90;82.20
8707;DHT22;4390;49.302;9.306;2023-06-26T06:42:36;22.90;82.20
8707;DHT22;4390;49.302;9.306;2023-06-26T06:45:04;22.90;82.30
8707;DHT22;4390;49.302;9.306;2023-06-26T06:47:34;22.90;82.30
8707;DHT22;4390;49.302;9.306;2023-06-26T06:50:01;22.90;82.20
8707;DHT22;4390;49.302;9.306;2023-06-26T06:52:39;22.90;82.30
8707;DHT22;4390;49.302;9.306;2023-06-26T06:55:07;22.90;82.40
8707;DHT22;4390;49.302;9.306;2023-06-26T06:57:37;22.90;82.50
8707;DHT22;4390;49.302;9.306;2023-06-26T07:00:06;22.80;82.60
8707;DHT22;4390;49.302;9.306;2023-06-26T07:02:39;22.80;82.60
8707;DHT22;4390;49.302;9.306;2023-06-26T07:05:07;22.80;82.60
8707;DHT22;4390;49.302;9.306;2023-06-26T07:07:34;22.80;82.50
8707;DHT22;4390;49.302;9.306;2023-06-26T07:10:05;22.90;82.50
8707;DHT22;4390;49.302;9.306;2023-06-26T07:12:32;22.90;82.50
8707;DHT22;4390;49.302;9.306;2023-06-26T07:15:01;22.90;82.50
8707;DHT22;4390;49.302;9.306;2023-06-26T07:17:29;22.90;82.30
8707;DHT22;4390;49.302;9.306;2023-06-26T07:19:56;22.90;82.20
8707;DHT22;4390;49.302;9.306;2023-06-26T07:22:23;23.00;82.10
8707;DHT22;4390;49.302;9.306;2023-06-26T07:24:50;23.00;82.10
8707;DHT22;4390;49.302;9.306;2023-06-26T07:27:17;23.00;82.10
8707;DHT22;4390;49.302;9.306;2023-06-26T07:29:46;23.00;82.10
8707;DHT22;4390;49.302;9.306;2023-06-26T07:32:13;23.00;82.10
8707;DHT22;4390;49.302;9.306;2023-06-26T07:34:41;23.00;82.10
8707;DHT22;4390;49.302;9.306;2023-06-26T07:37:08;23.00;82.00
8707;DHT22;4390;49.302;9.306;2023-06-26T07:39:35;23.00;82.10
8707;DHT22;4390;49.302;9.306;2023-06-26T07:42:02;23.10;82.00
8707;DHT22;4390;49.302;9.306;2023-06-26T07:44:28;23.10;82.00
8707;DHT22;4390;49.302;9.306;2023-06-26T07:46:55;23.10;81.90
8707;DHT22;4390;49.302;9.306;2023-06-26T07:49:22;23.10;82.00
8707;DHT22;4390;49.302;9.306;2023-06-26T07:51:49;23.10;81.90
8707;DHT22;4390;49.302;9.306;2023-06-26T07:54:16;23.20;81.90
8707;DHT22;4390;49.302;9.306;2023-06-26T07:56:56;23.20;82.00
8707;DHT22;4390;49.302;9.306;2023-06-26T07:59:24;23.20;81.80
8707;DHT22;4390;49.302;9.306;2023-06-26T08:01:53;23.20;81.90
8707;DHT22;4390;49.302;9.306;2023-06-26T08:04:21;23.20;81.60
8707;DHT22;4390;49.302;9.306;2023-06-26T08:06:50;23.30;81.70
8707;DHT22;4390;49.302;9.306;2023-06-26T08:09:18;23.30;81.60
8707;DHT22;4390;49.302;9.306;2023-06-26T08:11:45;23.30;81.70
8707;DHT22;4390;49.302;9.306;2023-06-26T08:14:13;23.30;81.60
8707;DHT22;4390;49.302;9.306;2023-06-26T08:16:40;23.40;81.60
8707;DHT22;4390;49.302;9.306;2023-06-26T08:19:08;23.40;81.70
8707;DHT22;4390;49.302;9.306;2023-06-26T08:21:34;23.40;81.70
8707;DHT22;4390;49.302;9.306;2023-06-26T08:24:02;23.40;81.70
8707;DHT22;4390;49.302;9.306;2023-06-26T08:26:29;23.40;81.80
8707;DHT22;4390;49.302;9.306;2023-06-26T08:28:56;23.40;81.80
8707;DHT22;4390;49.302;9.306;2023-06-26T08:31:22;23.40;81.80
8707;DHT22;4390;49.302;9.306;2023-06-26T08:33:49;23.40;81.80
8707;DHT22;4390;49.302;9.306;2023-06-26T08:36:16;23.40;82.00
8707;DHT22;4390;49.302;9.306;2023-06-26T08:38:43;23.40;82.00
8707;DHT22;4390;49.302;9.306;2023-06-26T08:41:10;23.40;82.10
8707;DHT22;4390;49.302;9.306;2023-06-26T08:43:37;23.40;82.20
8707;DHT22;4390;49.302;9.306;2023-06-26T08:46:04;23.40;82.20
8707;DHT22;4390;49.302;9.306;2023-06-26T08:48:33;23.50;82.10
8707;DHT22;4390;49.302;9.306;2023-06-26T08:51:04;23.50;82.10
8707;DHT22;4390;49.302;9.306;2023-06-26T08:54:00;23.50;82.00
8707;DHT22;4390;49.302;9.306;2023-06-26T08:56:32;23.60;81.80
8707;DHT22;4390;49.302;9.306;2023-06-26T08:59:00;23.60;81.70
8707;DHT22;4390;49.302;9.306;2023-06-26T09:01:28;23.70;81.60
8707;DHT22;4390;49.302;9.306;2023-06-26T09:03:55;23.70;81.70
8707;DHT22;4390;49.302;9.306;2023-06-26T09:06:21;23.70;81.60
8707;DHT22;4390;49.302;9.306;2023-06-26T09:08:48;23.70;81.50
8707;DHT22;4390;49.302;9.306;2023-06-26T09:11:15;23.80;81.40
8707;DHT22;4390;49.302;9.306;2023-06-26T09:13:43;23.80;81.40
8707;DHT22;4390;49.302;9.306;2023-06-26T09:16:10;23.90;81.30
8707;DHT22;4390;49.302;9.306;2023-06-26T09:18:37;23.90;81.30
8707;DHT22;4390;49.302;9.306;2023-06-26T09:21:07;23.90;81.30
8707;DHT22;4390;49.302;9.306;2023-06-26T09:23:35;23.90;81.30
8707;DHT22;4390;49.302;9.306;2023-06-26T09:26:03;23.90;81.20
8707;DHT22;4390;49.302;9.306;2023-06-26T09:28:32;23.90;81.20
8707;DHT22;4390;49.302;9.306;2023-06-26T09:31:03;23.90;81.20
8707;DHT22;4390;49.302;9.306;2023-06-26T09:33:38;24.00;81.20
8707;DHT22;4390;49.302;9.306;2023-06-26T09:36:09;24.00;81.20
8707;DHT22;4390;49.302;9.306;2023-06-26T09:38:39;23.90;81.30
8707;DHT22;4390;49.302;9.306;2023-06-26T09:41:05;23.90;81.30
8707;DHT22;4390;49.302;9.306;2023-06-26T09:43:32;24.00;81.10
8707;DHT22;4390;49.302;9.306;2023-06-26T09:46:00;24.10;81.00
8707;DHT22;4390;49.302;9.306;2023-06-26T09:48:28;24.10;80.80
8707;DHT22;4390;49.302;9.306;2023-06-26T09:50:55;24.20;80.60
8707;DHT22;4390;49.302;9.306;2023-06-26T09:53:38;24.20;80.50
8707;DHT22;4390;49.302;9.306;2023-06-26T09:56:06;24.30;80.50
8707;DHT22;4390;49.302;9.306;2023-06-26T09:58:33;24.20;80.50
8707;DHT22;4390;49.302;9.306;2023-06-26T10:01:00;24.30;80.50
8707;DHT22;4390;49.302;9.306;2023-06-26T10:03:27;24.40;80.40
8707;DHT22;4390;49.302;9.306;2023-06-26T10:05:54;24.40;80.40
8707;DHT22;4390;49.302;9.306;2023-06-26T10:08:21;24.50;80.30
8707;DHT22;4390;49.302;9.306;2023-06-26T10:10:49;24.50;80.20
8707;DHT22;4390;49.302;9.306;2023-06-26T10:13:22;24.60;80.00
8707;DHT22;4390;49.302;9.306;2023-06-26T10:15:51;24.50;79.90
8707;DHT22;4390;49.302;9.306;2023-06-26T10:18:18;24.50;80.10
8707;DHT22;4390;49.302;9.306;2023-06-26T10:20:48;24.60;80.10
8707;DHT22;4390;49.302;9.306;2023-06-26T10:23:16;24.60;80.20
8707;DHT22;4390;49.302;9.306;2023-06-26T10:25:48;24.70;80.20
8707;DHT22;4390;49.302;9.306;2023-06-26T10:28:18;24.70;80.00
8707;DHT22;4390;49.302;9.306;2023-06-26T10:30:48;24.60;80.00
8707;DHT22;4390;49.302;9.306;2023-06-26T10:33:18;24.60;79.90
8707;DHT22;4390;49.302;9.306;2023-06-26T10:35:46;24.70;79.90
8707;DHT22;4390;49.302;9.306;2023-06-26T10:38:13;24.60;80.10
8707;DHT22;4390;49.302;9.306;2023-06-26T10:40:47;24.70;80.10
8707;DHT22;4390;49.302;9.306;2023-06-26T10:43:16;24.70;80.20
8707;DHT22;4390;49.302;9.306;2023-06-26T10:45:47;24.80;80.40
8707;DHT22;4390;49.302;9.306;2023-06-26T10:48:19;24.80;80.40
8707;DHT22;4390;49.302;9.306;2023-06-26T10:50:49;24.80;80.50
8707;DHT22;4390;49.302;9.306;2023-06-26T10:56:07;24.80;80.70
8707;DHT22;4390;49.302;9.306;2023-06-26T11:01:21;24.70;80.70
8707;DHT22;4390;49.302;9.306;2023-06-26T11:06:25;24.80;80.80
8707;DHT22;4390;49.302;9.306;2023-06-26T11:08:54;24.80;81.00
8707;DHT22;4390;49.302;9.306;2023-06-26T11:11:22;24.80;81.20
8707;DHT22;4390;49.302;9.306;2023-06-26T11:13:49;24.80;81.20
8707;DHT22;4390;49.302;9.306;2023-06-26T11:16:16;24.70;81.30
8707;DHT22;4390;49.302;9.306;2023-06-26T11:18:44;24.70;81.50
8707;DHT22;4390;49.302;9.306;2023-06-26T11:21:12;24.70;81.70
8707;DHT22;4390;49.302;9.306;2023-06-26T11:23:44;24.70;81.80
8707;DHT22;4390;49.302;9.306;2023-06-26T11:26:16;24.70;82.00
8707;DHT22;4390;49.302;9.306;2023-06-26T11:28:47;24.70;82.10
8707;DHT22;4390;49.302;9.306;2023-06-26T11:31:29;24.80;82.10
8707;DHT22;4390;49.302;9.306;2023-06-26T11:34:01;24.90;82.10
8707;DHT22;4390;49.302;9.306;2023-06-26T11:36:30;24.90;82.10
8707;DHT22;4390;49.302;9.306;2023-06-26T11:38:58;24.90;82.10
8707;DHT22;4390;49.302;9.306;2023-06-26T11:41:27;24.90;82.00
8707;DHT22;4390;49.302;9.306;2023-06-26T11:43:55;24.90;81.70
8707;DHT22;4390;49.302;9.306;2023-06-26T11:46:22;25.00;81.60
8707;DHT22;4390;49.302;9.306;2023-06-26T11:48:49;25.10;81.50
8707;DHT22;4390;49.302;9.306;2023-06-26T11:51:16;25.20;81.40
8707;DHT22;4390;49.302;9.306;2023-06-26T11:53:44;25.20;81.30
8707;DHT22;4390;49.302;9.306;2023-06-26T11:56:16;25.30;81.30
8707;DHT22;4390;49.302;9.306;2023-06-26T12:01:22;25.30;81.30
8707;DHT22;4390;49.302;9.306;2023-06-26T12:03:50;25.30;81.40
8707;DHT22;4390;49.302;9.306;2023-06-26T12:06:17;25.20;81.50
8707;DHT22;4390;49.302;9.306;2023-06-26T12:08:44;25.20;81.50
8707;DHT22;4390;49.302;9.306;2023-06-26T12:11:12;25.20;81.70
8707;DHT22;4390;49.302;9.306;2023-06-26T12:13:39;25.20;81.70
8707;DHT22;4390;49.302;9.306;2023-06-26T12:16:06;25.20;81.60
8707;DHT22;4390;49.302;9.306;2023-06-26T12:18:35;25.40;81.80
8707;DHT22;4390;49.302;9.306;2023-06-26T12:21:03;25.40;81.90
8707;DHT22;4390;49.302;9.306;2023-06-26T12:23:47;25.30;82.10
8707;DHT22;4390;49.302;9.306;2023-06-26T12:26:21;25.40;82.10
8707;DHT22;4390;49.302;9.306;2023-06-26T12:28:47;25.50;82.00
8707;DHT22;4390;49.302;9.306;2023-06-26T12:31:20;25.50;82.00
8707;DHT22;4390;49.302;9.306;2023-06-26T12:33:48;25.50;82.00
8707;DHT22;4390;49.302;9.306;2023-06-26T12:36:14;25.50;81.90
8707;DHT22;4390;49.302;9.306;2023-06-26T12:38:41;25.50;81.90
8707;DHT22;4390;49.302;9.306;2023-06-26T12:41:15;25.50;81.80
8707;DHT22;4390;49.302;9.306;2023-06-26T12:43:42;25.60;81.60
8707;DHT22;4390;49.302;9.306;2023-06-26T12:46:09;25.60;81.60
8707;DHT22;4390;49.302;9.306;2023-06-26T12:51:10;25.60;81.50
8707;DHT22;4390;49.302;9.306;2023-06-26T12:53:38;25.60;81.40
8707;DHT22;4390;49.302;9.306;2023-06-26T12:56:11;25.60;81.40
8707;DHT22;4390;49.302;9.306;2023-06-26T12:58:38;25.50;81.40
8707;DHT22;4390;49.302;9.306;2023-06-26T13:01:06;25.50;81.30
8707;DHT22;4390;49.302;9.306;2023-06-26T13:03:41;25.50;81.30
8707;DHT22;4390;49.302;9.306;2023-06-26T13:06:08;25.50;81.30
8707;DHT22;4390;49.302;9.306;2023-06-26T13:08:35;25.50;81.30
8707;DHT22;4390;49.302;9.306;2023-06-26T13:11:02;25.50;81.50
8707;DHT22;4390;49.302;9.306;2023-06-26T13:13:29;25.50;81.50
8707;DHT22;4390;49.302;9.306;2023-06-26T13:15:56;25.50;81.50
8707;DHT22;4390;49.302;9.306;2023-06-26T13:18:23;25.60;81.40
8707;DHT22;4390;49.302;9.306;2023-06-26T13:20:50;25.50;81.40
8707;DHT22;4390;49.302;9.306;2023-06-26T13:23:17;25.50;81.20
8707;DHT22;4390;49.302;9.306;2023-06-26T13:25:45;25.50;81.10
8707;DHT22;4390;49.302;9.306;2023-06-26T13:28:12;25.60;80.90
8707;DHT22;4390;49.302;9.306;2023-06-26T13:30:39;25.60;80.70
8707;DHT22;4390;49.302;9.306;2023-06-26T13:33:06;25.70;80.40
8707;DHT22;4390;49.302;9.306;2023-06-26T13:35:33;25.70;80.30
8707;DHT22;4390;49.302;9.306;2023-06-26T13:38:00;25.60;80.20
8707;DHT22;4390;49.302;9.306;2023-06-26T13:40:26;25.60;80.00
8707;DHT22;4390;49.302;9.306;2023-06-26T13:42:53;25.60;79.80
8707;DHT22;4390;49.302;9.306;2023-06-26T13:45:20;25.60;79.70
8707;DHT22;4390;49.302;9.306;2023-06-26T13:47:57;25.70;79.50
8707;DHT22;4390;49.302;9.306;2023-06-26T13:50:23;25.70;79.40
8707;DHT22;4390;49.302;9.306;2023-06-26T13:52:50;25.70;79.20
8707;DHT22;4390;49.302;9.306;2023-06-26T13:55:17;25.70;78.80
8707;DHT22;4390;49.302;9.306;2023-06-26T13:57:45;25.70;78.40
8707;DHT22;4390;49.302;9.306;2023-06-26T14:00:12;25.70;78.00
8707;DHT22;4390;49.302;9.306;2023-06-26T14:02:39;25.70;77.90
8707;DHT22;4390;49.302;9.306;2023-06-26T14:05:06;25.70;77.70
8707;DHT22;4390;49.302;9.306;2023-06-26T14:07:33;25.80;77.40
8707;DHT22;4390;49.302;9.306;2023-06-26T14:10:00;25.70;77.10
8707;DHT22;4390;49.302;9.306;2023-06-26T14:12:27;25.70;77.10
8707;DHT22;4390;49.302;9.306;2023-06-26T14:14:53;25.70;77.00
8707;DHT22;4390;49.302;9.306;2023-06-26T14:17:20;25.70;76.90
8707;DHT22;4390;49.302;9.306;2023-06-26T14:19:47;25.60;76.90
8707;DHT22;4390;49.302;9.306;2023-06-26T14:22:14;25.70;76.60
8707;DHT22;4390;49.302;9.306;2023-06-26T14:24:41;25.80;76.50
8707;DHT22;4390;49.302;9.306;2023-06-26T14:27:08;25.70;76.40
8707;DHT22;4390;49.302;9.306;2023-06-26T14:29:36;25.70;76.30
8707;DHT22;4390;49.302;9.306;2023-06-26T14:32:05;25.70;76.40
8707;DHT22;4390;49.302;9.306;2023-06-26T14:34:32;25.70;76.20
8707;DHT22;4390;49.302;9.306;2023-06-26T14:36:59;25.70;76.30
8707;DHT22;4390;49.302;9.306;2023-06-26T14:39:26;25.70;76.40
8707;DHT22;4390;49.302;9.306;2023-06-26T14:41:53;25.70;76.10
8707;DHT22;4390;49.302;9.306;2023-06-26T14:44:20;25.60;75.90
8707;DHT22;4390;49.302;9.306;2023-06-26T14:46:48;25.60;75.90
8707;DHT22;4390;49.302;9.306;2023-06-26T14:49:14;25.60;75.90
8707;DHT22;4390;49.302;9.306;2023-06-26T14:51:41;25.70;75.70
8707;DHT22;4390;49.302;9.306;2023-06-26T14:54:08;25.70;75.30
8707;DHT22;4390;49.302;9.306;2023-06-26T14:56:35;25.60;75.40
8707;DHT22;4390;49.302;9.306;2023-06-26T14:59:02;25.60;75.20
8707;DHT22;4390;49.302;9.306;2023-06-26T15:01:29;25.50;75.30
8707;DHT22;4390;49.302;9.306;2023-06-26T15:03:56;25.60;75.20
8707;DHT22;4390;49.302;9.306;2023-06-26T15:06:23;25.60;74.90
8707;DHT22;4390;49.302;9.306;2023-06-26T15:08:50;25.60;74.90
8707;DHT22;4390;49.302;9.306;2023-06-26T15:11:18;25.60;74.90
8707;DHT22;4390;49.302;9.306;2023-06-26T15:13:45;25.60;74.80
8707;DHT22;4390;49.302;9.306;2023-06-26T15:16:11;25.60;74.70
8707;DHT22;4390;49.302;9.306;2023-06-26T15:18:40;25.60;74.70
8707;DHT22;4390;49.302;9.306;2023-06-26T15:21:06;25.50;74.90
8707;DHT22;4390;49.302;9.306;2023-06-26T15:23:34;25.50;75.10
8707;DHT22;4390;49.302;9.306;2023-06-26T15:26:01;25.60;75.20
8707;DHT22;4390;49.302;9.306;2023-06-26T15:28:28;25.60;75.20
8707;DHT22;4390;49.302;9.306;2023-06-26T15:30:54;25.50;75.30
8707;DHT22;4390;49.302;9.306;2023-06-26T15:33:21;25.50;75.40
8707;DHT22;4390;49.302;9.306;2023-06-26T15:35:48;25.50;75.10
8707;DHT22;4390;49.302;9.306;2023-06-26T15:38:15;25.40;75.20
8707;DHT22;4390;49.302;9.306;2023-06-26T15:40:41;25.40;75.10
8707;DHT22;4390;49.302;9.306;2023-06-26T15:43:08;25.40;74.90
8707;DHT22;4390;49.302;9.306;2023-06-26T15:45:35;25.30;75.00
8707;DHT22;4390;49.302;9.306;2023-06-26T15:48:02;25.40;75.30
8707;DHT22;4390;49.302;9.306;2023-06-26T15:50:29;25.40;74.60
8707;DHT22;4390;49.302;9.306;2023-06-26T15:52:55;25.40;75.20
8707;DHT22;4390;49.302;9.306;2023-06-26T15:55:22;25.60;75.10
8707;DHT22;4390;49.302;9.306;2023-06-26T15:57:49;25.90;74.70
8707;DHT22;4390;49.302;9.306;2023-06-26T16:00:16;26.10;74.30
8707;DHT22;4390;49.302;9.306;2023-06-26T16:02:43;26.20;73.20
8707;DHT22;4390;49.302;9.306;2023-06-26T16:05:10;26.30;72.80
8707;DHT22;4390;49.302;9.306;2023-06-26T16:07:37;26.30;73.20
8707;DHT22;4390;49.302;9.306;2023-06-26T16:10:23;26.40;71.90
8707;DHT22;4390;49.302;9.306;2023-06-26T16:12:49;26.40;72.20
8707;DHT22;4390;49.302;9.306;2023-06-26T16:15:16;26.50;71.40
8707;DHT22;4390;49.302;9.306;2023-06-26T16:17:43;26.50;71.20
8707;DHT22;4390;49.302;9.306;2023-06-26T16:20:10;26.50;71.00
8707;DHT22;4390;49.302;9.306;2023-06-26T16:22:37;26.50;70.80
8707;DHT22;4390;49.302;9.306;2023-06-26T16:25:04;26.50;70.00
8707;DHT22;4390;49.302;9.306;2023-06-26T16:27:31;26.50;70.60
8707;DHT22;4390;49.302;9.306;2023-06-26T16:29:58;26.50;70.30